Time;durP1;ratioP1;P1;durP2;ratioP2;P2;SDS_P1;SDS_P2;PMS_P1;PMS_P2;Temp;Humidity;BMP_temperature;BMP_pressure;BME280_temperature;BME280_humidity;BME280_pressure;Samples;Min_cycle;Max_cycle;Signal;HPM_P1;HPM_P2
2021/07/22 00:02:11;;;;;;;8.65;5.55;;;;;;;17.35;81.62;102445.72;5052945;28;20131;-49
2021/07/22 00:04:39;;;;;;;9.00;6.57;;;;;;;17.33;81.65;102445.19;5054009;28;20124;-50
2021/07/22 00:07:06;;;;;;;10.65;6.30;;;;;;;17.33;81.67;102444.34;5053937;28;20480;-50
2021/07/22 00:09:36;;;;;;;10.30;7.00;;;;;;;17.31;81.59;102447.47;5052919;28;20131;-57
2021/07/22 00:12:04;;;;;;;9.82;6.78;;;;;;;17.29;81.58;102446.94;5053534;28;20057;-57
2021/07/22 00:14:32;;;;;;;9.00;6.72;;;;;;;17.28;81.53;102452.88;5053593;28;20053;-58
2021/07/22 00:16:59;;;;;;;8.27;6.43;;;;;;;17.26;81.55;102446.69;5052755;28;20041;-52
2021/07/22 00:19:28;;;;;;;10.32;6.97;;;;;;;17.22;81.87;102450.13;5052232;28;20117;-57
2021/07/22 00:21:56;;;;;;;9.93;6.90;;;;;;;17.20;81.68;102445.94;5053178;28;20059;-57
2021/07/22 00:24:24;;;;;;;9.02;7.65;;;;;;;17.15;81.63;102446.88;5052771;28;20071;-50
2021/07/22 00:26:54;;;;;;;9.23;7.03;;;;;;;17.11;81.63;102445.78;5051356;28;20076;-54
2021/07/22 00:29:22;;;;;;;10.30;6.38;;;;;;;17.10;81.73;102444.13;5053075;28;20098;-59
2021/07/22 00:31:50;;;;;;;9.57;6.93;;;;;;;17.10;81.83;102446.09;5053021;28;20076;-52
2021/07/22 00:34:18;;;;;;;9.05;7.25;;;;;;;17.08;81.79;102442.75;5050670;28;20135;-49
2021/07/22 00:36:46;;;;;;;8.20;6.68;;;;;;;17.07;81.63;102438.25;5052566;28;20497;-48
2021/07/22 00:39:16;;;;;;;13.05;7.82;;;;;;;17.05;81.61;102440.53;5052853;28;20080;-49
2021/07/22 00:41:49;;;;;;;9.48;7.60;;;;;;;17.02;81.49;102438.31;5053480;28;20032;-49
2021/07/22 00:44:18;;;;;;;8.75;6.35;;;;;;;16.99;81.62;102434.13;5051353;28;20102;-55
2021/07/22 00:46:46;;;;;;;8.65;7.13;;;;;;;16.98;81.63;102437.25;5052854;28;20128;-53
2021/07/22 00:49:16;;;;;;;8.93;6.47;;;;;;;16.97;81.42;102432.78;5052932;28;20045;-50
2021/07/22 00:51:45;;;;;;;9.07;6.80;;;;;;;16.96;81.44;102434.75;5051524;28;20094;-51
2021/07/22 00:54:13;;;;;;;8.27;6.57;;;;;;;16.97;81.43;102444.03;5047007;28;20052;-53
2021/07/22 00:56:41;;;;;;;10.00;7.32;;;;;;;16.97;81.53;102432.78;5051911;28;20486;-48
2021/07/22 00:59:10;;;;;;;12.18;7.68;;;;;;;16.96;81.50;102431.94;5050777;28;20507;-48
2021/07/22 01:01:39;;;;;;;9.18;7.57;;;;;;;16.96;81.44;102431.94;5051133;28;20091;-52
2021/07/22 01:04:09;;;;;;;8.65;6.93;;;;;;;16.95;81.38;102441.53;5051458;28;20495;-49
2021/07/22 01:06:37;;;;;;;9.00;7.30;;;;;;;16.95;81.51;102429.41;5051964;28;20556;-47
2021/07/22 01:09:13;;;;;;;9.43;7.20;;;;;;;16.93;81.41;102438.16;5051401;28;20639;-49
2021/07/22 01:11:46;;;;;;;10.50;7.03;;;;;;;16.95;81.34;102435.88;5047886;28;20131;-55
2021/07/22 01:14:14;;;;;;;7.72;6.35;;;;;;;16.95;81.20;102435.88;5052200;28;20083;-51
2021/07/22 01:16:45;;;;;;;8.95;6.60;;;;;;;16.95;81.15;102429.41;5051189;28;20441;-51
2021/07/22 01:19:14;;;;;;;10.45;7.10;;;;;;;16.95;81.14;102427.44;5051536;28;20068;-52
2021/07/22 01:21:43;;;;;;;9.23;6.30;;;;;;;16.95;80.89;102426.59;5047798;28;20057;-50
2021/07/22 01:24:11;;;;;;;8.70;6.45;;;;;;;16.96;80.97;102428.28;5043539;28;20502;-49
2021/07/22 01:27:01;;;;;;;8.57;6.32;;;;;;;16.94;81.04;102430.56;5044833;28;20520;-58
2021/07/22 01:29:42;;;;;;;8.35;6.57;;;;;;;16.93;80.76;102429.72;5050796;28;20118;-56
2021/07/22 01:32:10;;;;;;;9.10;6.25;;;;;;;16.93;80.57;102424.06;5050421;28;20563;-55
2021/07/22 01:34:38;;;;;;;9.70;6.95;;;;;;;16.93;80.59;102426.88;5051467;28;20452;-54
2021/07/22 01:37:08;;;;;;;9.10;6.30;;;;;;;16.92;80.47;102430.84;5050647;28;20132;-48
2021/07/22 01:39:37;;;;;;;8.57;6.20;;;;;;;16.92;80.46;102427.19;5050457;28;20045;-48
2021/07/22 01:42:07;;;;;;;9.95;6.45;;;;;;;16.91;80.28;102425.50;5051289;28;20044;-49
2021/07/22 01:44:36;;;;;;;9.32;6.30;;;;;;;16.91;79.94;102422.69;5050316;28;20537;-54
2021/07/22 01:47:04;;;;;;;8.57;5.63;;;;;;;16.88;79.98;102424.97;5049443;28;20041;-50
2021/07/22 01:49:32;;;;;;;7.80;5.90;;;;;;;16.88;79.86;102424.97;5049067;28;20133;-55
2021/07/22 01:52:01;;;;;;;9.20;6.53;;;;;;;16.87;79.86;102431.75;5047508;28;20041;-52
2021/07/22 01:54:33;;;;;;;9.50;6.22;;;;;;;16.85;79.85;102431.22;5047079;28;20096;-51
2021/07/22 01:57:03;;;;;;;10.13;6.03;;;;;;;16.85;79.64;102428.41;5046639;28;20079;-56
2021/07/22 01:59:38;;;;;;;7.97;6.03;;;;;;;16.83;79.60;102427.03;5039255;28;20449;-53
2021/07/22 02:02:08;;;;;;;9.35;6.38;;;;;;;16.83;79.56;102415.75;5040428;28;20055;-50
2021/07/22 02:04:37;;;;;;;10.32;6.68;;;;;;;16.79;79.38;102415.50;5051328;28;20135;-51
2021/07/22 02:07:07;;;;;;;10.38;6.28;;;;;;;16.78;79.46;102429.94;5050277;28;20049;-55
2021/07/22 02:09:44;;;;;;;8.77;6.15;;;;;;;16.74;79.24;102415.59;5049621;28;20048;-49
2021/07/22 02:12:13;;;;;;;9.30;6.13;;;;;;;16.72;79.35;102423.53;5050381;28;20107;-55
2021/07/22 02:14:42;;;;;;;9.40;6.13;;;;;;;16.71;79.24;102423.81;5049893;28;20413;-50
2021/07/22 02:17:14;;;;;;;8.88;5.35;;;;;;;16.68;79.14;102425.25;5050841;28;20040;-58
2021/07/22 02:19:43;;;;;;;7.80;5.78;;;;;;;16.69;79.20;102426.94;5050977;28;20067;-51
2021/07/22 02:22:15;;;;;;;7.30;5.30;;;;;;;16.70;79.31;102419.31;5050436;28;20053;-48
2021/07/22 02:24:55;;;;;;;7.35;5.15;;;;;;;16.69;79.07;102424.13;5049889;28;20053;-58
2021/07/22 02:27:40;;;;;;;7.35;5.65;;;;;;;16.69;79.28;102426.94;5047865;28;20041;-50
2021/07/22 02:30:09;;;;;;;8.13;5.10;;;;;;;16.70;78.97;102427.78;5050309;28;20440;-50
2021/07/22 02:32:38;;;;;;;7.43;5.15;;;;;;;16.70;78.95;102425.78;5051262;28;20045;-56
2021/07/22 02:35:08;;;;;;;9.52;5.50;;;;;;;16.68;78.99;102425.25;5050934;28;20048;-49
2021/07/22 02:37:54;;;;;;;9.32;6.03;;;;;;;16.65;78.84;102428.69;5050591;28;20134;-56
2021/07/22 02:40:27;;;;;;;7.95;5.18;;;;;;;16.63;78.81;102430.94;5049091;28;20099;-54
2021/07/22 02:42:55;;;;;;;7.88;5.50;;;;;;;16.62;78.96;102429.25;5049053;28;20045;-55
2021/07/22 02:45:26;;;;;;;7.43;5.00;;;;;;;16.59;78.77;102427.03;5049135;28;20127;-52
2021/07/22 02:47:56;;;;;;;6.65;4.50;;;;;;;16.58;78.61;102428.19;5050613;28;20382;-54
2021/07/22 02:50:25;;;;;;;7.00;4.75;;;;;;;16.57;78.73;102428.50;5050215;28;20052;-50
2021/07/22 02:53:01;;;;;;;9.02;5.65;;;;;;;16.51;78.50;102428.56;5050662;28;20056;-58
2021/07/22 02:55:32;;;;;;;6.90;4.53;;;;;;;16.48;78.41;102425.50;5049419;28;20094;-49
2021/07/22 02:58:04;;;;;;;9.18;5.25;;;;;;;16.45;78.29;102431.72;5050496;28;20465;-52
2021/07/22 03:00:36;;;;;;;7.53;4.85;;;;;;;16.43;78.32;102436.81;5049165;28;20122;-51
2021/07/22 03:03:04;;;;;;;8.70;4.80;;;;;;;16.40;78.19;102434.59;5050701;28;20410;-52
2021/07/22 03:05:34;;;;;;;8.93;4.90;;;;;;;16.39;78.25;102433.75;5049986;28;20044;-60
2021/07/22 03:08:05;;;;;;;6.07;3.67;;;;;;;16.37;78.31;102432.41;5050625;28;20056;-55
2021/07/22 03:10:35;;;;;;;6.13;3.88;;;;;;;16.37;78.37;102436.06;5049219;28;20056;-56
2021/07/22 03:13:03;;;;;;;5.35;3.78;;;;;;;16.36;78.49;102430.72;5049982;28;20124;-52
2021/07/22 03:15:32;;;;;;;7.07;4.13;;;;;;;16.36;78.46;102430.72;5049219;28;20566;-53
2021/07/22 03:18:06;;;;;;;8.00;4.07;;;;;;;16.36;78.54;102431.56;5049134;28;20053;-52
2021/07/22 03:20:35;;;;;;;6.45;3.75;;;;;;;16.37;78.44;102435.22;5048690;28;20118;-54
2021/07/22 03:23:04;;;;;;;6.53;3.67;;;;;;;16.38;78.35;102436.91;5048828;28;20460;-60
2021/07/22 03:25:43;;;;;;;6.55;3.88;;;;;;;16.34;78.23;102425.38;5040852;28;20065;-54
2021/07/22 03:28:33;;;;;;;8.15;4.30;;;;;;;16.31;78.47;102423.16;5050209;28;20108;-50
2021/07/22 03:31:13;;;;;;;5.78;3.70;;;;;;;16.31;78.56;102420.34;5048952;28;20049;-52
2021/07/22 03:34:04;;;;;;;5.45;3.78;;;;;;;16.31;78.48;102425.16;5046758;28;20131;-49
2021/07/22 03:36:36;;;;;;;;;;;;;;;16.20;78.28;102428.06;5045725;28;20053;-58
2021/07/22 03:39:10;;;;;;;6.07;3.75;;;;;;;16.19;78.93;102423.56;5048931;28;19920;-54
2021/07/22 03:41:47;;;;;;;6.78;4.07;;;;;;;16.25;78.66;102426.34;5049489;28;20517;-51
2021/07/22 03:44:35;;;;;;;5.68;3.60;;;;;;;16.22;78.74;102426.94;5047711;28;20056;-48
2021/07/22 03:47:05;;;;;;;6.50;3.58;;;;;;;16.22;78.84;102422.13;5048088;28;20560;-50
2021/07/22 03:49:36;;;;;;;7.20;3.60;;;;;;;16.22;78.72;102424.09;5045119;28;20394;-55
2021/07/22 03:52:17;;;;;;;6.45;3.58;;;;;;;16.19;78.84;102428.34;5045505;28;20045;-51
2021/07/22 03:54:52;;;;;;;7.10;4.22;;;;;;;16.15;78.95;102424.50;5048155;28;20045;-58
2021/07/22 03:57:21;;;;;;;5.90;4.40;;;;;;;16.12;78.94;102417.47;5053950;28;20107;-49
2021/07/22 03:59:49;;;;;;;7.18;3.80;;;;;;;16.10;79.06;102424.53;5048846;28;20560;-59
2021/07/22 04:02:17;;;;;;;6.43;4.25;;;;;;;16.07;79.14;102420.34;5052367;28;20057;-51
2021/07/22 04:04:47;;;;;;;7.72;3.90;;;;;;;16.07;79.27;102425.97;5049140;28;20049;-55
2021/07/22 04:07:18;;;;;;;6.88;4.15;;;;;;;16.06;79.38;102424.28;5051696;28;20049;-58
2021/07/22 04:09:53;;;;;;;7.68;4.50;;;;;;;16.03;79.40;102422.06;5048630;28;20384;-48
2021/07/22 04:12:31;;;;;;;7.13;4.32;;;;;;;16.01;79.34;102421.50;5052026;28;20049;-53
2021/07/22 04:15:17;;;;;;;5.57;3.90;;;;;;;16.01;79.62;102415.88;5053254;28;20056;-52
2021/07/22 04:17:45;;;;;;;5.35;3.83;;;;;;;16.02;79.61;102422.34;5053560;28;20045;-52
2021/07/22 04:20:19;;;;;;;6.55;4.13;;;;;;;16.00;79.59;102417.03;5048943;28;20056;-50
2021/07/22 04:22:50;;;;;;;6.05;3.97;;;;;;;15.99;79.56;102420.13;5051020;28;20053;-51
2021/07/22 04:25:36;;;;;;;6.57;3.92;;;;;;;15.97;79.60;102423.28;5053459;28;20067;-57
2021/07/22 04:28:20;;;;;;;7.20;4.35;;;;;;;15.97;79.67;102423.28;5047465;28;20059;-55
2021/07/22 04:30:48;;;;;;;7.10;3.88;;;;;;;15.98;79.50;102422.13;5051414;28;20061;-56
2021/07/22 04:33:47;;;;;;;6.60;4.13;;;;;;;15.95;79.72;102421.88;5030272;28;20100;-57
2021/07/22 04:36:31;;;;;;;6.30;3.92;;;;;;;15.96;79.62;102426.38;5051210;28;20033;-52
2021/07/22 04:39:25;;;;;;;6.47;3.60;;;;;;;15.96;79.44;102432.84;5051778;28;20052;-58
2021/07/22 04:42:31;;;;;;;5.78;3.90;;;;;;;15.98;79.56;102427.78;4990209;28;20062;-50
2021/07/22 04:45:18;;;;;;;5.25;3.70;;;;;;;16.04;79.43;102432.19;4975510;28;20050;-52
2021/07/22 04:48:06;;;;;;;6.30;4.05;;;;;;;16.10;79.38;102432.97;5002051;28;20052;-48
2021/07/22 04:50:52;;;;;;;6.35;3.90;;;;;;;16.14;79.26;102434.06;5052390;28;20041;-50
2021/07/22 04:53:24;;;;;;;7.65;4.32;;;;;;;16.22;79.11;102441.00;5053144;28;20486;-48
2021/07/22 04:55:56;;;;;;;7.13;3.88;;;;;;;16.25;78.95;102431.97;5048168;28;20044;-57
2021/07/22 04:58:25;;;;;;;5.43;3.78;;;;;;;16.30;79.05;102437.56;5044160;28;20174;-49
2021/07/22 05:00:56;;;;;;;8.70;4.40;;;;;;;16.35;78.93;102434.69;5052937;28;20108;-57
2021/07/22 05:03:25;;;;;;;6.30;3.95;;;;;;;16.40;78.98;102446.72;5051525;28;20045;-50
2021/07/22 05:05:53;;;;;;;6.22;3.65;;;;;;;16.45;78.59;102443.00;5049976;28;20049;-54
2021/07/22 05:08:30;;;;;;;5.82;3.65;;;;;;;16.50;78.45;102437.31;5051228;28;20057;-54
2021/07/22 05:11:13;;;;;;;6.78;3.95;;;;;;;16.54;78.56;102435.56;5050921;28;20161;-50
2021/07/22 05:13:59;;;;;;;5.85;3.95;;;;;;;16.58;78.44;102436.66;5051740;28;20060;-50
2021/07/22 05:17:00;;;;;;;6.20;3.75;;;;;;;16.63;78.45;102430.09;5017194;28;20057;-58
2021/07/22 05:20:04;;;;;;;3.78;2.83;;;;;;;16.67;78.23;102437.69;5049373;28;20087;-53
2021/07/22 05:22:43;;;;;;;6.35;3.83;;;;;;;16.73;77.94;102436.47;5047499;28;20057;-53
2021/07/22 05:25:42;;;;;;;7.18;3.65;;;;;;;16.78;77.89;102441.22;5005411;28;20585;-53
2021/07/22 05:28:16;;;;;;;6.05;3.55;;;;;;;16.84;77.81;102445.63;5052167;28;20053;-52
2021/07/22 05:31:05;;;;;;;5.43;3.58;;;;;;;16.87;77.68;102439.38;5051239;28;20599;-54
2021/07/22 05:33:47;;;;;;;5.80;3.72;;;;;;;16.91;77.52;102445.25;5049022;28;20048;-53
2021/07/22 05:36:39;;;;;;;6.30;3.25;;;;;;;16.95;77.39;102451.97;5051035;28;20060;-48
2021/07/22 05:39:18;;;;;;;6.50;3.72;;;;;;;16.98;77.05;102449.38;5040304;28;20489;-54
2021/07/22 05:41:46;;;;;;;7.43;3.70;;;;;;;17.02;77.07;102452.41;5051528;28;20049;-49
2021/07/22 05:44:14;;;;;;;7.30;4.13;;;;;;;17.05;76.81;102440.53;5052076;28;20135;-48
2021/07/22 05:46:41;;;;;;;6.30;4.00;;;;;;;17.09;76.34;102445.25;5047988;28;20064;-53
2021/07/22 05:49:11;;;;;;;5.90;3.97;;;;;;;17.15;76.24;102452.50;5052169;28;20419;-56
2021/07/22 05:51:40;;;;;;;5.20;3.40;;;;;;;17.19;75.73;102450.72;5051728;28;20051;-49
2021/07/22 05:54:09;;;;;;;5.25;3.33;;;;;;;17.27;75.67;102445.56;5051103;28;20099;-52
2021/07/22 05:56:37;;;;;;;5.28;3.60;;;;;;;17.32;75.55;102446.31;5051731;28;20045;-47
2021/07/22 05:59:04;;;;;;;7.63;3.58;;;;;;;17.37;74.78;102449.06;5051482;28;20112;-52
2021/07/22 06:01:32;;;;;;;7.57;3.78;;;;;;;17.43;74.16;102447.81;5046486;28;20490;-60
2021/07/22 06:04:00;;;;;;;5.28;3.10;;;;;;;17.51;73.90;102451.94;5047944;28;20574;-50
2021/07/22 06:06:29;;;;;;;6.05;4.07;;;;;;;17.58;73.77;102451.56;5051630;28;20071;-57
2021/07/22 06:08:57;;;;;;;5.15;3.63;;;;;;;17.66;73.54;102448.88;5050762;28;20490;-49
2021/07/22 06:11:25;;;;;;;7.05;3.55;;;;;;;17.72;73.07;102447.66;5051519;28;20565;-59
2021/07/22 06:13:53;;;;;;;7.60;3.55;;;;;;;17.83;72.46;102443.50;5051547;28;20083;-49
2021/07/22 06:16:21;;;;;;;5.70;2.92;;;;;;;18.06;72.43;102455.78;5050610;28;20044;-51
2021/07/22 06:18:49;;;;;;;6.60;3.45;;;;;;;18.26;71.79;102446.09;5051441;28;20044;-50
2021/07/22 06:21:18;;;;;;;5.90;3.80;;;;;;;18.36;70.86;102456.38;5050915;28;20065;-50
2021/07/22 06:23:47;;;;;;;6.60;3.40;;;;;;;18.43;70.59;102451.13;5050588;28;20501;-49
2021/07/22 06:26:15;;;;;;;5.70;3.45;;;;;;;18.48;69.91;102454.69;5050951;28;20139;-51
2021/07/22 06:28:43;;;;;;;5.63;3.33;;;;;;;18.52;68.99;102447.25;5050328;28;20048;-60
2021/07/22 06:31:10;;;;;;;6.05;3.08;;;;;;;18.61;68.46;102455.84;5050990;28;20502;-50
2021/07/22 06:33:38;;;;;;;6.22;3.35;;;;;;;18.74;68.03;102449.38;5050958;28;20057;-58
2021/07/22 06:36:06;;;;;;;7.20;3.88;;;;;;;18.88;67.38;102444.53;5050885;28;20051;-58
2021/07/22 06:38:34;;;;;;;6.57;3.40;;;;;;;19.01;67.38;102450.47;5050889;28;20506;-52
2021/07/22 06:41:03;;;;;;;5.93;3.47;;;;;;;19.06;66.94;102444.69;5047175;28;20045;-60
2021/07/22 06:43:32;;;;;;;6.07;3.63;;;;;;;19.13;66.73;102450.75;5050087;28;20067;-51
2021/07/22 06:46:00;;;;;;;7.25;4.13;;;;;;;19.18;66.60;102445.78;5046413;28;20399;-51
2021/07/22 06:48:28;;;;;;;6.30;3.70;;;;;;;19.26;66.25;102450.72;5048931;28;20098;-53
2021/07/22 06:50:56;;;;;;;6.90;3.50;;;;;;;19.38;65.86;102452.16;5050230;28;20049;-53
2021/07/22 06:53:23;;;;;;;5.32;3.47;;;;;;;19.61;65.02;102451.84;5050702;28;20127;-53
2021/07/22 06:55:52;;;;;;;5.43;3.17;;;;;;;19.89;64.08;102440.38;5050751;28;20049;-56
2021/07/22 06:58:22;;;;;;;5.80;3.30;;;;;;;20.18;63.29;102457.69;5050126;28;20472;-50
2021/07/22 07:00:50;;;;;;;4.93;2.90;;;;;;;20.44;63.25;102445.69;5050401;28;20049;-51
2021/07/22 07:03:19;;;;;;;5.90;3.40;;;;;;;20.68;62.94;102448.94;5050441;28;20037;-54
2021/07/22 07:05:47;;;;;;;5.50;3.30;;;;;;;20.89;61.79;102446.31;5050216;28;20056;-59
2021/07/22 07:08:15;;;;;;;4.65;3.00;;;;;;;21.03;60.82;102446.16;5050701;28;20049;-49
2021/07/22 07:10:43;;;;;;;4.35;2.83;;;;;;;21.15;60.18;102449.22;5049973;28;20430;-50
2021/07/22 07:13:13;;;;;;;6.10;3.47;;;;;;;21.25;59.47;102454.56;5050505;28;20033;-52
2021/07/22 07:15:42;;;;;;;4.55;2.70;;;;;;;21.33;59.07;102456.59;5045763;28;20061;-56
2021/07/22 07:18:10;;;;;;;4.72;2.90;;;;;;;21.30;58.82;102454.41;5043876;28;20076;-53
2021/07/22 07:20:38;;;;;;;6.97;2.92;;;;;;;21.18;58.67;102457.06;5050378;28;20076;-54
2021/07/22 07:23:06;;;;;;;4.60;2.55;;;;;;;21.02;59.07;102453.84;5049894;28;20111;-52
2021/07/22 07:25:33;;;;;;;4.82;2.53;;;;;;;20.91;59.33;102459.03;5049699;28;20048;-52
2021/07/22 07:28:01;;;;;;;4.32;2.72;;;;;;;20.86;59.33;102459.16;5050144;28;20106;-50
2021/07/22 07:30:30;;;;;;;6.80;3.60;;;;;;;20.89;59.21;102455.69;5053732;28;20397;-57
2021/07/22 07:32:59;;;;;;;4.60;2.80;;;;;;;20.87;59.00;102460.84;5053699;28;20136;-51
2021/07/22 07:35:27;;;;;;;7.40;3.20;;;;;;;20.82;59.17;102451.63;5054110;28;20051;-51
2021/07/22 07:37:55;;;;;;;6.10;3.72;;;;;;;20.80;58.97;102459.63;5053885;28;20556;-54
2021/07/22 07:40:23;;;;;;;5.50;3.00;;;;;;;20.75;58.99;102463.50;5053509;28;20045;-58
2021/07/22 07:42:51;;;;;;;6.10;3.97;;;;;;;20.70;59.00;102455.13;5053208;28;20048;-50
2021/07/22 07:45:19;;;;;;;4.32;2.78;;;;;;;20.70;58.57;102459.97;5054012;28;20045;-49
2021/07/22 07:47:47;;;;;;;4.80;2.50;;;;;;;20.79;58.29;102464.47;5053651;28;20102;-55
2021/07/22 07:50:16;;;;;;;4.63;2.95;;;;;;;21.08;58.21;102458.22;5053980;28;20067;-49
2021/07/22 07:52:44;;;;;;;6.15;2.53;;;;;;;21.43;57.39;102464.78;5053579;28;20045;-53
2021/07/22 07:55:15;;;;;;;6.50;2.78;;;;;;;21.70;56.55;102457.91;5053117;28;20065;-55
2021/07/22 07:57:42;;;;;;;4.07;2.60;;;;;;;21.84;55.53;102458.56;5053648;28;20551;-56
2021/07/22 08:00:11;;;;;;;3.65;2.40;;;;;;;21.77;55.35;102455.41;5053336;28;20650;-53
2021/07/22 08:02:39;;;;;;;4.70;2.55;;;;;;;21.75;55.36;102454.06;5053926;28;20490;-52
2021/07/22 08:05:08;;;;;;;4.82;2.78;;;;;;;21.75;55.35;102465.44;5053708;28;20037;-54
2021/07/22 08:07:38;;;;;;;4.63;2.67;;;;;;;21.87;55.20;102455.03;5052760;28;20198;-50
2021/07/22 08:10:06;;;;;;;5.07;2.78;;;;;;;22.06;54.61;102460.38;5053968;28;20045;-53
2021/07/22 08:12:34;;;;;;;5.75;2.55;;;;;;;22.23;54.28;102463.16;5053653;28;20044;-54
2021/07/22 08:15:04;;;;;;;5.05;2.78;;;;;;;22.36;53.86;102461.28;5053038;28;20045;-58
2021/07/22 08:17:32;;;;;;;5.07;2.90;;;;;;;22.48;52.84;102469.09;5053449;28;20068;-55
2021/07/22 08:20:02;;;;;;;6.50;2.70;;;;;;;22.50;52.15;102475.28;5053346;28;20087;-51
2021/07/22 08:22:30;;;;;;;4.97;2.60;;;;;;;22.41;51.37;102468.78;5052686;28;20083;-53
2021/07/22 08:24:59;;;;;;;4.18;2.60;;;;;;;22.41;51.87;102472.47;5053391;28;20045;-53
2021/07/22 08:27:28;;;;;;;3.75;2.40;;;;;;;22.48;51.86;102469.09;5053207;28;20139;-53
2021/07/22 08:29:56;;;;;;;4.15;2.65;;;;;;;22.62;51.75;102469.69;5052624;28;20452;-55
2021/07/22 08:32:25;;;;;;;4.93;2.50;;;;;;;22.78;52.05;102467.97;5053271;28;20100;-53
2021/07/22 08:34:53;;;;;;;6.30;2.60;;;;;;;23.02;51.77;102465.31;5053189;28;20059;-54
2021/07/22 08:37:21;;;;;;;3.65;2.45;;;;;;;23.23;51.05;102467.34;5049169;28;20052;-56
2021/07/22 08:39:50;;;;;;;6.60;2.63;;;;;;;23.33;50.87;102461.25;5052709;28;20136;-54
2021/07/22 08:42:21;;;;;;;5.20;2.55;;;;;;;23.35;50.93;102473.13;5051753;28;20395;-54
2021/07/22 08:44:50;;;;;;;3.75;2.33;;;;;;;23.35;50.08;102471.09;5053177;28;20047;-50
2021/07/22 08:47:18;;;;;;;6.22;2.50;;;;;;;23.35;49.49;102473.13;5052773;28;20051;-57
2021/07/22 08:49:46;;;;;;;7.22;2.50;;;;;;;23.42;49.34;102464.84;5052463;28;20514;-51
2021/07/22 08:52:13;;;;;;;6.50;2.92;;;;;;;23.45;49.12;102464.13;5052847;28;20049;-53
2021/07/22 08:54:42;;;;;;;4.75;2.58;;;;;;;23.57;49.08;102469.13;5049097;28;20132;-60
2021/07/22 08:57:11;;;;;;;5.43;2.35;;;;;;;23.65;49.19;102474.72;5052128;28;20080;-58
2021/07/22 08:59:40;;;;;;;3.45;2.10;;;;;;;23.62;49.92;102478.25;5052462;28;20449;-50
2021/07/22 09:02:11;;;;;;;4.40;2.40;;;;;;;23.73;49.41;102469.31;5052429;28;20444;-50
2021/07/22 09:04:53;;;;;;;4.78;2.63;;;;;;;23.87;48.78;102464.94;5051726;28;20107;-50
2021/07/22 09:07:21;;;;;;;6.25;2.40;;;;;;;24.12;49.04;102465.88;5052817;28;20413;-50
2021/07/22 09:10:12;;;;;;;6.85;2.70;;;;;;;24.35;47.70;102464.28;5052506;28;20124;-51
2021/07/22 09:12:41;;;;;;;3.38;2.40;;;;;;;24.56;47.21;102466.22;5052567;28;20106;-51
2021/07/22 09:15:12;;;;;;;4.72;2.47;;;;;;;24.67;46.90;102473.94;5052633;28;20045;-50
2021/07/22 09:18:00;;;;;;;4.55;2.47;;;;;;;24.82;46.69;102466.66;5047660;28;20505;-51
2021/07/22 09:20:30;;;;;;;6.35;2.30;;;;;;;24.92;46.89;102465.34;5052249;28;20128;-50
2021/07/22 09:23:00;;;;;;;5.82;2.97;;;;;;;25.12;46.01;102457.88;5051983;28;20045;-50
2021/07/22 09:25:40;;;;;;;6.28;2.35;;;;;;;25.17;45.98;102471.91;5051783;28;20090;-55
2021/07/22 09:28:08;;;;;;;4.90;2.28;;;;;;;25.12;47.08;102475.00;5052334;28;20063;-52
2021/07/22 09:30:37;;;;;;;4.32;2.78;;;;;;;25.05;47.05;102458.47;5052138;28;20525;-55
2021/07/22 09:33:05;;;;;;;3.78;2.10;;;;;;;25.04;46.59;102466.19;5046867;28;20057;-54
2021/07/22 09:35:38;;;;;;;3.90;2.20;;;;;;;24.93;45.74;102467.84;5048072;28;20045;-57
2021/07/22 09:38:12;;;;;;;4.30;2.33;;;;;;;24.92;46.36;102463.34;5052104;28;20102;-59
2021/07/22 09:40:40;;;;;;;5.60;2.50;;;;;;;24.95;45.59;102468.38;5051345;28;20288;-54
2021/07/22 09:43:09;;;;;;;5.30;2.35;;;;;;;24.84;45.80;102460.59;5051679;28;20059;-50
2021/07/22 09:45:47;;;;;;;5.22;2.60;;;;;;;24.63;46.88;102461.56;5051031;28;20051;-53
2021/07/22 09:48:15;;;;;;;3.92;2.15;;;;;;;24.74;46.81;102467.63;5051445;28;20090;-52
2021/07/22 09:50:45;;;;;;;4.70;2.20;;;;;;;24.94;45.64;102471.56;5051824;28;20065;-51
2021/07/22 09:53:13;;;;;;;4.78;2.25;;;;;;;24.85;45.31;102465.94;5050760;28;20442;-51
2021/07/22 09:55:42;;;;;;;5.45;2.28;;;;;;;24.67;45.88;102473.09;5051646;28;20049;-51
2021/07/22 09:58:12;;;;;;;4.00;2.25;;;;;;;24.53;46.54;102475.47;5051418;28;20132;-53
2021/07/22 10:00:44;;;;;;;5.18;2.35;;;;;;;24.42;47.24;102471.41;5051169;28;20494;-55
2021/07/22 10:03:15;;;;;;;6.70;2.33;;;;;;;24.36;46.98;102476.53;5051481;28;20052;-54
2021/07/22 10:05:47;;;;;;;7.75;2.47;;;;;;;24.15;46.11;102479.44;5051483;28;20059;-53
2021/07/22 10:08:19;;;;;;;7.90;2.40;;;;;;;23.95;46.81;102466.91;5039611;28;20045;-56
2021/07/22 10:10:51;;;;;;;5.72;2.78;;;;;;;23.79;47.93;102470.72;5051385;28;20045;-51
2021/07/22 10:13:24;;;;;;;6.30;2.80;;;;;;;23.66;48.14;102476.41;5051472;28;20033;-56
2021/07/22 10:15:54;;;;;;;6.68;3.03;;;;;;;23.55;48.02;102478.00;5050586;28;20048;-56
2021/07/22 10:18:23;;;;;;;6.40;2.60;;;;;;;23.45;48.54;102475.53;5051388;28;20067;-54
2021/07/22 10:20:52;;;;;;;5.47;2.88;;;;;;;23.44;48.91;102470.19;5047398;28;20072;-56
2021/07/22 10:23:21;;;;;;;5.13;2.90;;;;;;;23.63;48.79;102476.25;5047872;28;20056;-53
2021/07/22 10:25:50;;;;;;;6.82;2.90;;;;;;;23.84;48.63;102470.53;5046769;28;20069;-56
2021/07/22 10:28:18;;;;;;;5.05;2.88;;;;;;;24.01;48.40;102470.34;5046912;28;20081;-53
2021/07/22 10:30:47;;;;;;;4.90;2.85;;;;;;;24.00;48.33;102469.50;5050979;28;20490;-52
2021/07/22 10:33:20;;;;;;;7.20;2.95;;;;;;;23.96;47.95;102473.44;5051183;28;20443;-53
2021/07/22 10:35:54;;;;;;;4.68;2.60;;;;;;;23.90;47.23;102469.97;5050782;28;20048;-57
2021/07/22 10:38:23;;;;;;;4.75;2.80;;;;;;;23.81;47.98;102474.91;5051066;28;20508;-59
2021/07/22 10:40:58;;;;;;;4.28;2.60;;;;;;;23.90;47.79;102478.50;5051001;28;20040;-53
2021/07/22 10:43:41;;;;;;;3.65;2.45;;;;;;;23.99;47.38;102467.84;5046775;28;20077;-53
2021/07/22 10:46:11;;;;;;;5.55;2.70;;;;;;;23.93;47.18;102463.56;5050825;28;20102;-51
2021/07/22 10:48:41;;;;;;;7.30;2.10;;;;;;;23.83;47.05;102468.84;5050581;28;20099;-54
2021/07/22 10:51:10;;;;;;;5.10;2.50;;;;;;;23.71;46.85;102466.78;5050906;28;20140;-52
2021/07/22 10:53:49;;;;;;;4.47;2.50;;;;;;;23.74;47.32;102466.09;5050504;28;20104;-53
2021/07/22 10:56:52;;;;;;;4.00;2.40;;;;;;;23.91;47.50;102456.53;5045954;28;20049;-51
2021/07/22 10:59:20;;;;;;;5.43;2.50;;;;;;;24.07;47.76;102457.53;5008299;28;20124;-55
2021/07/22 11:01:53;;;;;;;5.05;2.40;;;;;;;23.99;47.33;102461.28;5008658;28;20100;-50
2021/07/22 11:04:46;;;;;;;4.20;2.25;;;;;;;23.90;47.79;102463.41;5028161;28;20053;-61
2021/07/22 11:07:17;;;;;;;;;;;;;;;23.84;47.17;102454.25;5050111;28;20488;-50
2021/07/22 11:10:01;;;;;;;4.30;2.45;;;;;;;23.98;48.59;102453.94;5047408;28;19943;-59
2021/07/22 11:12:44;;;;;;;4.05;2.15;;;;;;;24.08;47.33;102452.66;5051121;28;20086;-57
2021/07/22 11:15:16;;;;;;;4.15;2.33;;;;;;;24.13;47.52;102449.59;5048075;28;20086;-54
2021/07/22 11:17:46;;;;;;;5.30;2.42;;;;;;;23.99;47.12;102447.03;5046619;28;20141;-52
2021/07/22 11:20:35;;;;;;;5.43;2.28;;;;;;;23.83;47.43;102443.19;5047654;28;20048;-50
2021/07/22 11:23:15;;;;;;;6.28;2.50;;;;;;;23.74;47.39;102442.47;5048302;28;20053;-58
2021/07/22 11:25:45;;;;;;;3.95;2.20;;;;;;;23.76;48.33;102451.50;5049752;28;20140;-50
2021/07/22 11:28:15;;;;;;;4.70;2.38;;;;;;;23.78;48.23;102438.53;5050728;28;20051;-55
2021/07/22 11:31:05;;;;;;;5.63;2.25;;;;;;;23.82;47.82;102442.34;5050366;28;20075;-49
2021/07/22 11:33:34;;;;;;;5.43;2.40;;;;;;;23.88;47.84;102448.69;5049508;28;20064;-52
2021/07/22 11:36:05;;;;;;;3.95;1.90;;;;;;;23.94;47.33;102453.81;5050167;28;20136;-50
2021/07/22 11:38:34;;;;;;;3.50;2.03;;;;;;;24.01;47.24;102439.78;5050106;28;20079;-56
2021/07/22 11:41:02;;;;;;;7.13;2.30;;;;;;;24.04;47.27;102436.25;5046523;28;20048;-58
2021/07/22 11:43:37;;;;;;;5.55;2.00;;;;;;;24.05;46.29;102439.94;5048499;28;20033;-58
2021/07/22 11:46:08;;;;;;;5.25;1.95;;;;;;;23.98;46.73;102443.34;5047065;28;20056;-59
2021/07/22 11:48:36;;;;;;;5.43;2.42;;;;;;;23.94;47.52;102435.88;5048341;28;20137;-50